createdAt,value
2022-09-12T04:36:06.705Z,12.98
2022-09-12T04:46:47.717Z,9.05
2022-09-12T04:49:56.570Z,10.18
2022-09-12T04:52:59.096Z,9.77
2022-09-12T04:56:03.901Z,9.38
2022-09-12T06:19:56.968Z,14.45
2022-09-12T06:22:59.748Z,9.40
2022-09-12T06:26:18.453Z,12.23
2022-09-12T07:15:10.794Z,12.88
2022-09-12T07:18:16.917Z,9.65
2022-09-12T07:21:20.029Z,9.35
2022-09-12T07:24:22.871Z,10.52
2022-09-12T07:27:25.719Z,8.65
2022-09-12T07:30:28.592Z,8.32
2022-09-12T07:33:31.209Z,8.90
2022-09-12T07:36:34.653Z,9.77
2022-09-12T07:39:37.834Z,9.50
2022-09-12T07:42:40.646Z,8.52
2022-09-12T07:45:43.445Z,9.05
2022-09-12T07:48:50.152Z,8.50
2022-09-12T07:51:53.192Z,8.43
2022-09-12T07:54:55.965Z,10.68
2022-09-12T07:57:58.741Z,7.47
2022-09-12T08:01:04.054Z,6.65
2022-09-12T08:04:07.213Z,6.65
2022-09-12T08:33:51.861Z,5.87
2022-09-12T08:36:54.680Z,7.65
2022-09-12T08:39:57.252Z,9.23
2022-09-12T08:43:14.731Z,5.90
2022-09-12T08:46:38.557Z,5.10
2022-09-12T08:50:01.997Z,12.23
2022-09-12T08:53:13.972Z,4.50
2022-09-12T08:56:16.844Z,4.28
2022-09-12T08:59:19.290Z,5.30
2022-09-12T09:02:45.874Z,7.53
2022-09-12T09:06:02.653Z,5.57
2022-09-12T09:09:33.033Z,3.83
2022-09-12T09:12:54.079Z,3.42
2022-09-12T09:16:13.986Z,4.15
2022-09-12T09:19:27.665Z,6.17
2022-09-12T09:22:44.979Z,3.60
2022-09-12T09:25:53.989Z,4.50
2022-09-12T09:29:02.471Z,4.53
2022-09-12T09:32:14.338Z,3.22
2022-09-12T09:35:23.749Z,4.03
2022-09-12T09:38:54.148Z,3.30
2022-09-12T09:41:59.955Z,3.28
2022-09-12T09:45:12.883Z,9.93
2022-09-12T09:48:22.597Z,5.25
2022-09-12T09:51:34.381Z,2.70
2022-09-12T09:54:43.189Z,2.75
2022-09-12T09:57:47.181Z,14.55
2022-09-12T10:01:00.409Z,3.42
2022-09-12T10:04:04.005Z,3.00
2022-09-12T10:07:06.635Z,4.20
2022-09-12T10:10:36.489Z,4.72
2022-09-12T10:13:54.050Z,3.20
2022-09-12T10:20:39.908Z,2.80
2022-09-12T10:23:43.665Z,3.10
2022-09-12T10:26:55.917Z,2.72
2022-09-12T10:29:59.441Z,2.83
2022-09-12T10:33:11.631Z,2.80
2022-09-12T10:36:16.248Z,3.15
2022-09-12T10:39:19.738Z,3.30
2022-09-12T10:42:55.212Z,3.42
2022-09-12T10:45:59.368Z,3.70
2022-09-12T10:49:22.255Z,2.80
2022-09-12T10:52:25.705Z,2.80
2022-09-12T10:55:34.955Z,2.75
2022-09-12T10:58:54.639Z,3.15
2022-09-12T11:02:25.514Z,2.70
2022-09-12T11:08:51.012Z,3.72
2022-09-12T11:12:36.624Z,3.37
2022-09-12T11:54:20.362Z,3.50
2022-09-12T12:09:15.204Z,6.62
2022-09-12T12:20:08.797Z,3.28
2022-09-12T12:23:37.439Z,2.78
2022-09-12T12:26:47.659Z,5.03
2022-09-12T12:29:55.627Z,3.37
2022-09-12T12:33:07.321Z,3.35
2022-09-12T12:36:33.920Z,3.33
2022-09-12T12:39:36.454Z,7.45
2022-09-12T12:42:39.122Z,2.65
2022-09-12T12:45:41.538Z,2.80
2022-09-12T12:49:11.151Z,4.70
2022-09-12T12:52:18.703Z,2.75
2022-09-12T12:55:26.476Z,2.72
2022-09-12T12:58:37.477Z,4.72
2022-09-12T13:01:50.425Z,3.10
2022-09-12T13:04:56.342Z,5.57
2022-09-12T13:08:11.830Z,3.25
2022-09-12T13:11:29.635Z,2.45
2022-09-12T13:14:47.846Z,2.55
2022-09-12T13:17:52.062Z,3.67
2022-09-12T13:21:16.523Z,3.83
2022-09-12T13:24:22.877Z,2.72
2022-09-12T13:27:26.018Z,2.58
2022-09-12T13:30:32.991Z,3.85
2022-09-12T13:37:40.191Z,2.62
2022-09-12T13:47:47.080Z,2.47
2022-09-12T13:51:00.597Z,5.03
2022-09-12T13:54:05.376Z,2.55
2022-09-12T13:57:30.929Z,2.22
2022-09-12T14:08:08.646Z,1.90
2022-09-12T14:11:18.900Z,2.37
2022-09-12T14:14:31.622Z,1.62
2022-09-12T14:17:39.332Z,5.18
2022-09-12T14:20:42.778Z,1.77
2022-09-12T14:23:48.787Z,1.48
2022-09-12T14:26:55.528Z,5.03
2022-09-12T14:30:09.100Z,1.67
2022-09-12T14:33:11.545Z,1.33
2022-09-12T14:39:42.801Z,5.22
2022-09-12T14:42:49.582Z,2.65
2022-09-12T14:49:36.818Z,1.42
2022-09-12T14:52:40.158Z,1.35
2022-09-12T14:55:46.419Z,2.50
2022-09-12T14:58:50.181Z,1.55
2022-09-12T15:02:31.859Z,3.08
2022-09-12T15:05:55.229Z,1.55
2022-09-12T15:20:19.423Z,2.08
2022-09-12T15:23:51.844Z,1.58
2022-09-12T15:38:02.441Z,3.00
